Time;durP1;ratioP1;P1;durP2;ratioP2;P2;SDS_P1;SDS_P2;PMS_P1;PMS_P2;Temp;Humidity;BMP_temperature;BMP_pressure;BME280_temperature;BME280_humidity;BME280_pressure;Samples;Min_cycle;Max_cycle;Signal;HPM_P1;HPM_P2
2023/10/12 00:01:58;;;;;;;;;;;;;;;14.53;35.41;98131.34;5076113;28;19912;-68
2023/10/12 00:04:35;;;;;;;;;;;;;;;14.54;35.15;98138.34;5090223;28;19913;-68
2023/10/12 00:07:09;;;;;;;;;;;;;;;14.52;35.08;98127.00;5074739;28;19944;-69
2023/10/12 00:09:34;;;;;;;;;;;;;;;14.52;34.88;98122.44;5074404;28;19916;-68
2023/10/12 00:12:07;;;;;;;;;;;;;;;14.51;34.72;98134.31;5074201;28;20388;-68
2023/10/12 00:14:32;;;;;;;;;;;;;;;14.47;34.81;98130.56;5074922;28;19948;-68
2023/10/12 00:16:58;;;;;;;;;;;;;;;14.44;35.02;98127.59;5074360;28;19962;-69
2023/10/12 00:19:24;;;;;;;;;;;;;;;14.39;34.97;98133.00;5074198;28;20042;-68
2023/10/12 00:21:50;;;;;;;;;;;;;;;14.33;34.96;98143.81;5056482;28;19912;-69
2023/10/12 00:24:17;;;;;;;;;;;;;;;14.28;35.45;98146.56;5056441;28;19916;-69
2023/10/12 00:26:43;;;;;;;;;;;;;;;14.23;35.37;98133.06;5074224;28;19913;-69
2023/10/12 00:29:09;;;;;;;;;;;;;;;14.21;35.67;98145.22;5074110;28;19999;-69
2023/10/12 00:31:38;;;;;;;;;;;;;;;14.18;35.81;98143.06;5074273;28;19923;-69
2023/10/12 00:34:03;;;;;;;;;;;;;;;14.07;36.20;98145.78;5073903;28;19950;-69
2023/10/12 00:36:29;;;;;;;;;;;;;;;14.03;36.26;98150.13;5073867;28;19959;-69
2023/10/12 00:38:56;;;;;;;;;;;;;;;14.01;35.82;98148.78;5073820;28;20357;-69
2023/10/12 00:41:24;;;;;;;;;;;;;;;13.96;35.90;98152.28;5073921;28;19955;-69
2023/10/12 00:43:52;;;;;;;;;;;;;;;13.94;35.99;98147.16;5055610;28;19935;-69
2023/10/12 00:48:56;;;;;;;;;;;;;;;13.91;36.02;98142.34;5073430;28;20274;-69
2023/10/12 00:51:22;;;;;;;;;;;;;;;13.95;36.16;98148.00;5073858;28;19916;-69
2023/10/12 00:53:57;;;;;;;;;;;;;;;13.97;35.99;98150.38;5072961;28;20377;-69
2023/10/12 00:56:28;;;;;;;;;;;;;;;13.93;35.83;98167.16;5087848;28;19912;-69
2023/10/12 00:58:55;;;;;;;;;;;;;;;13.87;36.18;98153.91;5093594;28;20003;-69
2023/10/12 01:01:20;;;;;;;;;;;;;;;13.88;36.20;98145.56;5059483;28;19913;-69
2023/10/12 01:03:47;;;;;;;;;;;;;;;13.90;36.10;98148.78;5073621;28;19919;-69
2023/10/12 01:06:20;;;;;;;;;;;;;;;13.86;37.10;98145.03;5073363;28;19913;-69
2023/10/12 01:08:46;;;;;;;;;;;;;;;13.90;36.68;98153.38;5073672;28;19923;-69
2023/10/12 01:11:18;;;;;;;;;;;;;;;13.96;36.56;98154.19;5073085;28;19935;-69
2023/10/12 01:13:44;;;;;;;;;;;;;;;13.99;36.38;98153.66;5073502;28;20402;-69
2023/10/12 01:16:21;;;;;;;;;;;;;;;14.04;36.48;98153.63;5076786;28;19912;-69
2023/10/12 01:18:50;;;;;;;;;;;;;;;14.01;36.92;98162.28;5093603;28;20061;-69
2023/10/12 01:21:15;;;;;;;;;;;;;;;14.01;36.41;98157.69;5091550;28;19912;-69
2023/10/12 01:23:41;;;;;;;;;;;;;;;14.01;36.69;98163.09;5078630;28;19918;-69
2023/10/12 01:26:12;;;;;;;;;;;;;;;14.00;36.42;98168.75;5093962;28;20377;-69
2023/10/12 01:28:39;;;;;;;;;;;;;;;13.97;36.77;98174.69;5094356;28;19912;-69
2023/10/12 01:31:06;;;;;;;;;;;;;;;13.92;36.59;98180.91;5094412;28;19922;-69
2023/10/12 01:33:32;;;;;;;;;;;;;;;13.89;36.98;98184.97;5091912;28;19961;-69
2023/10/12 01:35:57;;;;;;;;;;;;;;;13.95;36.62;98191.16;5074004;28;19916;-69
2023/10/12 01:38:22;;;;;;;;;;;;;;;13.96;36.92;98187.38;5073765;28;19912;-69
2023/10/12 01:43:13;;;;;;;;;;;;;;;13.97;37.20;98188.16;5073797;28;19917;-69
2023/10/12 01:45:43;;;;;;;;;;;;;;;13.94;37.57;98184.13;5097983;28;19919;-69
2023/10/12 01:48:12;;;;;;;;;;;;;;;13.90;37.87;98178.47;5074500;28;19913;-69
2023/10/12 01:50:38;;;;;;;;;;;;;;;14.00;37.41;98199.22;5077344;28;19920;-68
2023/10/12 01:55:45;;;;;;;;;;;;;;;13.96;37.12;98217.06;5076654;28;19912;-68
2023/10/12 01:58:12;;;;;;;;;;;;;;;13.87;37.25;98224.91;5077474;28;20050;-68
2023/10/12 02:00:53;;;;;;;;;;;;;;;13.80;37.44;98228.94;5076947;28;19961;-68
2023/10/12 02:03:26;;;;;;;;;;;;;;;13.71;37.56;98224.09;5076905;28;19928;-69
2023/10/12 02:06:02;;;;;;;;;;;;;;;13.67;38.05;98239.19;5092467;28;19940;-69
2023/10/12 02:08:39;;;;;;;;;;;;;;;13.65;37.45;98238.66;5076889;28;19912;-69
2023/10/12 02:11:08;;;;;;;;;;;;;;;13.61;37.68;98234.84;5076676;28;19921;-69
2023/10/12 02:13:34;;;;;;;;;;;;;;;13.67;37.47;98241.88;5076497;28;20304;-69
2023/10/12 02:16:00;;;;;;;;;;;;;;;13.70;37.80;98252.13;5060679;28;19912;-69
2023/10/12 02:18:26;;;;;;;;;;;;;;;13.73;37.89;98250.78;5086971;28;19912;-69
2023/10/12 02:31:35;;;;;;;;;;;;;;;13.79;38.36;98257.00;5076123;28;19916;-68
2023/10/12 02:34:15;;;;;;;;;;;;;;;13.82;38.17;98268.06;5076283;28;19920;-68
2023/10/12 02:36:40;;;;;;;;;;;;;;;13.84;38.35;98267.81;5076387;28;19935;-68
2023/10/12 02:39:15;;;;;;;;;;;;;;;13.84;38.22;98279.41;5076265;28;20353;-68
2023/10/12 02:41:45;;;;;;;;;;;;;;;13.74;38.39;98288.28;5076083;28;20227;-68
2023/10/12 02:44:18;;;;;;;;;;;;;;;13.70;38.40;98284.50;5076581;28;20292;-68
2023/10/12 02:46:59;;;;;;;;;;;;;;;13.66;38.31;98285.31;5076696;28;19912;-68
2023/10/12 02:49:24;;;;;;;;;;;;;;;13.66;38.83;98301.50;5076212;28;19994;-68
2023/10/12 02:51:51;;;;;;;;;;;;;;;13.65;38.19;98297.16;5058318;28;20050;-69
2023/10/12 02:54:16;;;;;;;;;;;;;;;13.65;38.06;98292.59;5076011;28;20003;-69
2023/10/12 02:56:43;;;;;;;;;;;;;;;13.67;38.22;98303.94;5076268;28;20337;-68
2023/10/12 02:59:08;;;;;;;;;;;;;;;13.69;38.79;98306.34;5058698;28;19964;-68
2023/10/12 03:01:38;;;;;;;;;;;;;;;13.73;38.27;98307.44;5072432;28;20389;-69
2023/10/12 03:04:05;;;;;;;;;;;;;;;13.78;37.91;98303.94;5038662;28;19913;-68
2023/10/12 03:06:32;;;;;;;;;;;;;;;13.87;38.05;98305.84;5056678;28;20269;-68
2023/10/12 03:11:28;;;;;;;;;;;;;;;13.92;38.00;98316.63;5056188;28;19970;-69
2023/10/12 03:14:16;;;;;;;;;;;;;;;13.94;38.08;98335.25;5061620;28;19917;-69
2023/10/12 03:16:42;;;;;;;;;;;;;;;13.96;37.76;98335.78;5083150;28;19916;-68
2023/10/12 03:21:45;;;;;;;;;;;;;;;14.00;37.58;98328.78;5080402;28;20377;-68
2023/10/12 03:24:12;;;;;;;;;;;;;;;14.05;37.56;98331.47;5084217;28;19912;-68
2023/10/12 03:26:40;;;;;;;;;;;;;;;14.09;37.34;98327.16;5096602;28;19933;-68
2023/10/12 03:29:26;;;;;;;;;;;;;;;14.10;37.15;98336.09;5096429;28;20015;-69
2023/10/12 03:31:54;;;;;;;;;;;;;;;14.04;36.87;98345.25;5095346;28;19942;-69
2023/10/12 03:37:03;;;;;;;;;;;;;;;13.95;36.82;98355.78;5087309;28;19973;-69
2023/10/12 03:39:30;;;;;;;;;;;;;;;13.88;36.68;98350.63;5076090;28;20050;-69
2023/10/12 03:42:09;;;;;;;;;;;;;;;13.93;36.27;98357.94;5075594;28;19913;-68
2023/10/12 03:44:41;;;;;;;;;;;;;;;13.87;36.13;98358.97;5075949;28;20266;-68
2023/10/12 03:52:20;;;;;;;;;;;;;;;13.83;35.75;98368.69;5075862;28;20398;-69
2023/10/12 03:54:56;;;;;;;;;;;;;;;13.90;35.39;98375.44;5075925;28;19923;-68
2023/10/12 03:57:36;;;;;;;;;;;;;;;13.90;35.36;98388.13;5085373;28;19913;-68
2023/10/12 04:02:39;;;;;;;;;;;;;;;13.72;35.27;98392.97;5084579;28;19987;-68
2023/10/12 04:18:35;;;;;;;;;;;;;;;13.97;34.32;98436.44;5095512;28;19955;-70
2023/10/12 04:21:03;;;;;;;;;;;;;;;14.02;34.26;98455.34;5096343;28;19912;-70
2023/10/12 04:23:44;;;;;;;;;;;;;;;14.00;33.99;98457.50;5093637;28;20368;-70
2023/10/12 04:28:38;;;;;;;;;;;;;;;13.95;33.12;98461.00;5073840;28;20296;-69
2023/10/12 04:33:56;;;;;;;;;;;;;;;14.00;33.65;98479.09;5063700;28;19913;-69
2023/10/12 04:36:24;;;;;;;;;;;;;;;14.03;33.47;98487.47;5073560;28;19912;-70
2023/10/12 04:46:49;;;;;;;;;;;;;;;13.99;32.55;98509.88;5074046;28;20427;-70
2023/10/12 04:51:49;;;;;;;;;;;;;;;14.13;32.94;98510.97;5073972;28;19959;-70
2023/10/12 04:54:23;;;;;;;;;;;;;;;14.07;32.23;98518.25;5073512;28;19961;-69
2023/10/12 04:57:12;;;;;;;;;;;;;;;14.14;33.49;98515.31;5074775;28;19938;-69
2023/10/12 04:59:50;;;;;;;;;;;;;;;14.04;32.87;98513.41;5076819;28;20385;-69
2023/10/12 05:02:28;;;;;;;;;;;;;;;14.09;32.71;98515.28;5086706;28;19961;-69
2023/10/12 05:07:54;;;;;;;;;;;;;;;14.20;32.38;98537.75;5046385;28;19948;-70
2023/10/12 05:13:04;;;;;;;;;;;;;;;14.20;32.38;98567.44;5074496;28;19916;-70
2023/10/12 05:16:16;;;;;;;;;;;;;;;14.27;32.52;98576.13;5073705;28;19916;-69
2023/10/12 05:18:25;;;;;;;;;;;;;;;14.31;32.26;98566.41;5064902;28;20352;-69
2023/10/12 05:20:51;;;;;;;;;;;;;;;14.26;32.62;98575.31;5073102;28;19913;-69
2023/10/12 05:23:17;;;;;;;;;;;;;;;14.34;32.65;98571.28;5072688;28;20433;-69
2023/10/12 05:28:27;;;;;;;;;;;;;;;14.40;32.61;98578.31;5073349;28;19919;-69
2023/10/12 05:30:59;;;;;;;;;;;;;;;14.38;32.29;98572.38;5068587;28;20473;-70
2023/10/12 05:33:38;;;;;;;;;;;;;;;14.39;32.37;98578.56;5052969;28;19920;-69
2023/10/12 05:36:10;;;;;;;;;;;;;;;14.43;32.77;98583.19;5053320;28;19913;-69
2023/10/12 05:38:36;;;;;;;;;;;;;;;14.43;32.71;98595.88;5053295;28;19920;-69
2023/10/12 05:41:02;;;;;;;;;;;;;;;14.38;32.48;98593.16;5053229;28;19913;-69
2023/10/12 05:43:31;;;;;;;;;;;;;;;14.41;32.40;98598.03;5055078;28;20011;-69
2023/10/12 05:46:03;;;;;;;;;;;;;;;14.43;32.53;98594.00;5073172;28;20284;-69
2023/10/12 05:48:28;;;;;;;;;;;;;;;14.43;32.20;98602.09;5072845;28;19917;-69
2023/10/12 05:50:54;;;;;;;;;;;;;;;14.44;32.64;98605.59;5056088;28;19912;-69
2023/10/12 05:53:20;;;;;;;;;;;;;;;14.46;32.57;98606.94;5088570;28;19913;-69
2023/10/12 05:55:47;;;;;;;;;;;;;;;14.32;32.56;98616.63;5096886;28;19912;-69
2023/10/12 05:58:13;;;;;;;;;;;;;;;14.31;32.61;98628.50;5093159;28;19919;-69
2023/10/12 06:00:44;;;;;;;;;;;;;;;14.37;32.78;98629.34;5082998;28;19962;-69
2023/10/12 06:03:15;;;;;;;;;;;;;;;14.33;32.43;98634.44;5073046;28;19919;-69
2023/10/12 06:05:41;;;;;;;;;;;;;;;14.24;33.22;98636.84;5073221;28;19913;-69
2023/10/12 06:08:08;;;;;;;;;;;;;;;14.37;32.78;98642.84;5073219;28;20317;-69
2023/10/12 06:10:34;;;;;;;;;;;;;;;14.43;32.77;98647.19;5088479;28;19975;-69
2023/10/12 06:12:59;;;;;;;;;;;;;;;14.44;33.00;98648.81;5072867;28;20389;-69
2023/10/12 06:15:30;;;;;;;;;;;;;;;14.45;32.61;98650.44;5055944;28;19916;-70
2023/10/12 06:17:56;;;;;;;;;;;;;;;14.55;32.65;98647.78;5073339;28;19916;-70
2023/10/12 06:20:35;;;;;;;;;;;;;;;14.63;32.93;98657.28;5072602;28;19913;-70
2023/10/12 06:23:05;;;;;;;;;;;;;;;14.59;32.77;98661.59;5088500;28;19958;-70
2023/10/12 06:25:30;;;;;;;;;;;;;;;14.64;32.91;98667.84;5072587;28;19912;-70
2023/10/12 06:27:55;;;;;;;;;;;;;;;14.64;32.69;98684.03;5054719;28;20293;-69
2023/10/12 06:30:23;;;;;;;;;;;;;;;14.70;32.75;98688.38;5073223;28;19919;-69
2023/10/12 06:32:48;;;;;;;;;;;;;;;14.74;32.51;98691.38;5072777;28;20011;-69
2023/10/12 06:51:37;;;;;;;;;;;;;;;14.92;31.26;98719.81;5056319;28;20316;-66
2023/10/12 06:53:51;;;;;;;;;;;;;;;15.05;31.75;98734.72;5050280;28;19916;-67
2023/10/12 06:58:45;;;;;;;;;;;;;;;15.06;30.92;98750.69;5058275;28;19913;-59
2023/10/12 07:04:15;;;;;;;;;;;;;;;15.12;31.27;98750.69;5029210;28;19920;-61
2023/10/12 07:06:56;;;;;;;;;;;;;;;15.10;31.21;98754.47;5088480;28;19919;-61
2023/10/12 07:09:44;;;;;;;;;;;;;;;15.02;30.54;98762.28;5073788;28;19924;-60
2023/10/12 07:12:14;;;;;;;;;;;;;;;15.13;30.46;98772.06;5056055;28;19928;-60
2023/10/12 07:14:46;;;;;;;;;;;;;;;15.15;29.95;98782.63;5067098;28;19916;-59
2023/10/12 07:17:12;;;;;;;;;;;;;;;15.15;29.38;98796.94;5088965;28;19923;-60
2023/10/12 07:19:50;;;;;;;;;;;;;;;15.24;30.11;98778.31;5078081;28;19998;-60
2023/10/12 07:22:15;;;;;;;;;;;;;;;15.41;30.11;98783.50;5073315;28;20010;-59
2023/10/12 07:24:42;;;;;;;;;;;;;;;15.35;29.94;98785.38;5073690;28;19978;-60
2023/10/12 07:27:21;;;;;;;;;;;;;;;15.47;30.03;98777.84;5073698;28;19913;-61
2023/10/12 07:29:47;;;;;;;;;;;;;;;15.49;29.90;98791.13;5075957;28;19920;-60
2023/10/12 07:34:53;;;;;;;;;;;;;;;15.49;29.09;98807.34;5108152;28;19921;-69
2023/10/12 07:37:19;;;;;;;;;;;;;;;15.52;29.69;98779.72;5108940;28;20010;-69
2023/10/12 07:39:44;;;;;;;;;;;;;;;15.68;29.12;98794.13;5085611;28;19979;-69
2023/10/12 07:42:13;;;;;;;;;;;;;;;15.48;27.85;98805.72;5073730;28;20396;-58
2023/10/12 07:44:42;;;;;;;;;;;;;;;15.59;28.54;98807.34;5072968;28;19916;-60
2023/10/12 07:50:07;;;;;;;;;;;;;;;15.58;28.11;98810.31;5036085;28;19938;-59
2023/10/12 07:55:07;;;;;;;;;;;;;;;15.67;27.66;98825.78;5074573;28;19916;-74
2023/10/12 07:57:35;;;;;;;;;;;;;;;15.77;28.66;98841.25;5073400;28;19912;-68
2023/10/12 08:00:29;;;;;;;;;;;;;;;15.83;27.55;98842.88;5078152;28;19919;-68
2023/10/12 08:08:40;;;;;;;;;;;;;;;15.71;26.96;98877.47;5074310;28;20003;-69
2023/10/12 08:16:14;;;;;;;;;;;;;;;15.99;27.55;98875.38;5074351;28;20372;-68
2023/10/12 08:24:09;;;;;;;;;;;;;;;16.14;26.58;98883.56;5074421;28;19934;-68
2023/10/12 08:29:17;;;;;;;;;;;;;;;16.27;26.46;98893.03;5074669;28;19962;-68
2023/10/12 08:31:46;;;;;;;;;;;;;;;16.34;26.83;98900.88;5073932;28;19924;-68
2023/10/12 08:42:55;;;;;;;;;;;;;;;16.53;27.19;98914.72;5073964;28;19920;-68
2023/10/12 08:45:22;;;;;;;;;;;;;;;16.52;26.83;98916.63;5074735;28;19914;-68
2023/10/12 08:47:53;;;;;;;;;;;;;;;16.55;26.41;98931.53;5074147;28;19917;-68
2023/10/12 08:52:50;;;;;;;;;;;;;;;16.56;26.37;98919.59;5073983;28;19917;-68
2023/10/12 08:55:19;;;;;;;;;;;;;;;16.62;26.64;98903.06;5078303;28;19947;-68
2023/10/12 08:57:55;;;;;;;;;;;;;;;16.79;26.55;98920.94;5093838;28;20001;-68
2023/10/12 09:00:39;;;;;;;;;;;;;;;16.70;25.58;98923.41;5101895;28;20439;-68
2023/10/12 09:03:14;;;;;;;;;;;;;;;16.93;26.02;98930.16;5073827;28;20250;-68
2023/10/12 09:05:40;;;;;;;;;;;;;;;17.02;25.95;98930.44;5073638;28;20373;-68
2023/10/12 09:08:24;;;;;;;;;;;;;;;16.80;25.77;98945.06;5074110;28;20069;-68
2023/10/12 09:13:34;;;;;;;;;;;;;;;16.98;25.13;98949.16;5073573;28;19920;-68
2023/10/12 09:16:00;;;;;;;;;;;;;;;16.87;25.10;98946.75;5075596;28;19954;-68
2023/10/12 09:18:32;;;;;;;;;;;;;;;17.03;25.56;98942.91;5093324;28;19922;-68
2023/10/12 09:23:28;;;;;;;;;;;;;;;17.28;24.96;98949.38;5074461;28;19912;-68
2023/10/12 09:31:14;;;;;;;;;;;;;;;17.02;24.81;98971.94;5095615;28;19919;-62
2023/10/12 09:33:56;;;;;;;;;;;;;;;16.99;25.24;98971.66;5076977;28;20015;-61
2023/10/12 09:36:22;;;;;;;;;;;;;;;17.34;24.45;98959.13;5075354;28;20301;-61
2023/10/12 09:38:47;;;;;;;;;;;;;;;17.53;24.82;98951.19;5075088;28;19912;-60
2023/10/12 09:41:14;;;;;;;;;;;;;;;17.77;25.25;98973.09;5075554;28;19958;-61
2023/10/12 09:43:41;;;;;;;;;;;;;;;17.87;25.02;98967.66;5075946;28;19920;-61
2023/10/12 09:46:09;;;;;;;;;;;;;;;17.83;24.74;98972.00;5075137;28;19920;-62
2023/10/12 09:48:38;;;;;;;;;;;;;;;17.59;24.84;98985.41;5075128;28;19916;-61
2023/10/12 09:51:15;;;;;;;;;;;;;;;17.84;23.74;99046.94;5074913;28;20312;-62
2023/10/12 09:53:43;;;;;;;;;;;;;;;17.92;23.98;98996.69;5074648;28;20281;-61
2023/10/12 09:58:56;;;;;;;;;;;;;;;18.02;24.25;99007.53;5074630;28;19999;-61
2023/10/12 10:01:49;;;;;;;;;;;;;;;18.17;23.67;99014.78;5088704;28;19950;-61
2023/10/12 10:07:08;;;;;;;;;;;;;;;18.24;22.99;99019.91;5074515;28;19912;-60
2023/10/12 10:12:00;;;;;;;;;;;;;;;18.49;22.95;99046.13;5078318;28;20389;-61
2023/10/12 10:14:33;;;;;;;;;;;;;;;18.91;23.19;99053.78;5078328;28;19951;-61
2023/10/12 10:17:00;;;;;;;;;;;;;;;18.77;22.59;99055.47;5088782;28;20430;-61
2023/10/12 10:19:29;;;;;;;;;;;;;;;18.98;22.64;99049.91;5098404;28;19915;-61
2023/10/12 10:22:11;;;;;;;;;;;;;;;18.93;22.32;99058.94;5081662;28;19913;-60
2023/10/12 10:24:36;;;;;;;;;;;;;;;19.15;22.80;99053.06;5105767;28;19964;-61
2023/10/12 10:27:12;;;;;;;;;;;;;;;19.16;21.99;99062.81;5098641;28;19998;-61
2023/10/12 10:32:38;;;;;;;;;;;;;;;19.19;22.34;99070.44;5049359;28;19921;-61
2023/10/12 10:35:12;;;;;;;;;;;;;;;19.62;22.58;99067.06;5058450;28;19913;-61
2023/10/12 10:37:58;;;;;;;;;;;;;;;19.46;22.25;99060.94;5058010;28;19916;-60
2023/10/12 10:40:45;;;;;;;;;;;;;;;19.68;21.60;99082.22;5058177;28;19913;-61
2023/10/12 10:43:15;;;;;;;;;;;;;;;19.86;22.00;99070.63;5057716;28;20385;-61
2023/10/12 10:45:42;;;;;;;;;;;;;;;19.88;21.19;99098.38;5077707;28;19912;-62
2023/10/12 10:48:07;;;;;;;;;;;;;;;19.95;22.91;99098.06;5078008;28;19912;-61
2023/10/12 10:50:33;;;;;;;;;;;;;;;20.08;21.79;99102.00;5077397;28;19920;-61
2023/10/12 10:52:59;;;;;;;;;;;;;;;20.04;21.76;99101.78;5077433;28;19916;-62
2023/10/12 10:55:26;;;;;;;;;;;;;;;19.87;21.26;99126.75;5076785;28;19991;-62
2023/10/12 10:57:56;;;;;;;;;;;;;;;20.13;22.15;99106.56;5077631;28;19919;-59
2023/10/12 11:00:33;;;;;;;;;;;;;;;19.94;21.75;99120.13;5085570;28;19962;-61
2023/10/12 11:02:59;;;;;;;;;;;;;;;20.11;21.48;99112.31;5082575;28;19951;-61
2023/10/12 11:05:28;;;;;;;;;;;;;;;20.17;21.61;99127.53;5077091;28;20357;-61
2023/10/12 11:07:54;;;;;;;;;;;;;;;19.87;20.92;99164.91;5072689;28;19916;-59
2023/10/12 11:10:31;;;;;;;;;;;;;;;20.09;21.88;99139.84;5111651;28;20011;-60
2023/10/12 11:13:00;;;;;;;;;;;;;;;20.27;22.09;99137.50;5077155;28;19982;-60
2023/10/12 11:15:26;;;;;;;;;;;;;;;20.29;21.20;99141.53;5076788;28;20384;-60
2023/10/12 11:17:59;;;;;;;;;;;;;;;20.38;20.90;99165.47;5094686;28;19912;-59
2023/10/12 11:20:34;;;;;;;;;;;;;;;20.10;21.27;99162.50;5092104;28;19912;-60
2023/10/12 11:23:02;;;;;;;;;;;;;;;20.26;20.64;99180.31;5076802;28;19940;-60
2023/10/12 11:25:27;;;;;;;;;;;;;;;20.33;21.05;99168.22;5083019;28;19958;-60
2023/10/12 11:27:53;;;;;;;;;;;;;;;20.45;20.69;99172.19;5076414;28;19916;-61
2023/10/12 11:30:35;;;;;;;;;;;;;;;20.45;20.74;99190.47;5076103;28;19917;-59
2023/10/12 11:33:06;;;;;;;;;;;;;;;20.52;21.02;99190.09;5075860;28;19939;-60
2023/10/12 11:35:33;;;;;;;;;;;;;;;20.75;21.12;99196.69;5056866;28;20385;-60
2023/10/12 11:37:58;;;;;;;;;;;;;;;20.60;21.23;99203.94;5056303;28;19917;-59
2023/10/12 11:40:27;;;;;;;;;;;;;;;20.41;20.38;99216.66;5065761;28;19919;-60
2023/10/12 11:42:53;;;;;;;;;;;;;;;20.31;20.80;99218.41;5096450;28;19955;-60
2023/10/12 11:45:18;;;;;;;;;;;;;;;20.31;20.88;99229.31;5089452;28;20449;-60
2023/10/12 11:47:43;;;;;;;;;;;;;;;20.44;21.09;99222.34;5077036;28;19935;-59
2023/10/12 11:50:13;;;;;;;;;;;;;;;20.26;20.63;99229.38;5076040;28;19912;-60
2023/10/12 11:52:40;;;;;;;;;;;;;;;20.41;21.47;99243.94;5076271;28;19985;-60
2023/10/12 11:55:18;;;;;;;;;;;;;;;20.47;21.41;99253.72;5075676;28;19912;-60
2023/10/12 11:57:45;;;;;;;;;;;;;;;20.42;21.66;99272.84;5076474;28;19920;-60
2023/10/12 12:00:26;;;;;;;;;;;;;;;20.59;22.36;99266.94;5082235;28;19919;-60
2023/10/12 12:02:57;;;;;;;;;;;;;;;20.60;21.73;99269.41;5082289;28;19958;-60
2023/10/12 12:05:22;;;;;;;;;;;;;;;20.72;21.07;99288.09;5076667;28;19919;-60
2023/10/12 12:07:51;;;;;;;;;;;;;;;20.76;20.94;99271.97;5076619;28;19992;-60
2023/10/12 12:10:17;;;;;;;;;;;;;;;20.79;20.65;99283.09;5075925;28;19921;-60
2023/10/12 12:12:44;;;;;;;;;;;;;;;20.92;20.86;99291.72;5075827;28;19951;-60
2023/10/12 12:15:09;;;;;;;;;;;;;;;20.80;21.01;99300.28;5075944;28;19913;-60
2023/10/12 12:17:35;;;;;;;;;;;;;;;20.93;21.29;99313.25;5091114;28;19919;-60
2023/10/12 12:20:00;;;;;;;;;;;;;;;20.88;20.79;99314.13;5095145;28;19912;-60
2023/10/12 12:22:38;;;;;;;;;;;;;;;20.96;20.89;99320.03;5091056;28;19971;-60
2023/10/12 12:25:17;;;;;;;;;;;;;;;20.97;20.28;99333.41;5076012;28;20331;-60
2023/10/12 12:27:48;;;;;;;;;;;;;;;21.32;21.47;99333.25;5075823;28;19913;-60
2023/10/12 12:30:22;;;;;;;;;;;;;;;21.44;20.75;99341.84;5076008;28;19913;-60
2023/10/12 12:32:49;;;;;;;;;;;;;;;21.31;20.08;99340.63;5074837;28;19916;-60
2023/10/12 12:35:15;;;;;;;;;;;;;;;21.11;20.40;99358.06;5075560;28;20009;-60
2023/10/12 12:37:41;;;;;;;;;;;;;;;20.88;21.00;99356.97;5075712;28;19918;-60
2023/10/12 12:43:01;;;;;;;;;;;;;;;20.76;21.30;99371.00;5062407;28;20010;-59
2023/10/12 12:45:26;;;;;;;;;;;;;;;20.54;20.25;99373.38;5075452;28;19960;-60
2023/10/12 12:47:51;;;;;;;;;;;;;;;20.42;20.73;99384.66;5075250;28;20415;-59
2023/10/12 12:50:17;;;;;;;;;;;;;;;20.07;20.69;99378.38;5075175;28;19914;-58
2023/10/12 12:52:46;;;;;;;;;;;;;;;20.02;21.02;99414.66;5074835;28;19971;-58
2023/10/12 12:55:11;;;;;;;;;;;;;;;19.90;21.18;99368.66;5074429;28;19912;-60
2023/10/12 12:57:42;;;;;;;;;;;;;;;19.52;21.18;99370.25;5075220;28;19966;-60
2023/10/12 13:00:08;;;;;;;;;;;;;;;19.58;21.19;99369.13;5081286;28;19912;-60
2023/10/12 13:02:33;;;;;;;;;;;;;;;19.49;21.56;99349.81;5083503;28;19919;-60
2023/10/12 13:05:00;;;;;;;;;;;;;;;19.55;21.79;99364.22;5074838;28;19970;-61
2023/10/12 13:07:26;;;;;;;;;;;;;;;19.74;21.74;99372.56;5074766;28;19913;-60
2023/10/12 13:09:51;;;;;;;;;;;;;;;19.77;21.39;99376.66;5074621;28;19942;-59
2023/10/12 13:12:17;;;;;;;;;;;;;;;19.78;21.67;99390.00;5075125;28;20031;-60
2023/10/12 13:14:43;;;;;;;;;;;;;;;19.83;21.57;99392.69;5074572;28;19912;-60
2023/10/12 13:17:09;;;;;;;;;;;;;;;19.82;21.61;99388.34;5080228;28;19924;-59
2023/10/12 13:19:34;;;;;;;;;;;;;;;19.97;21.76;99400.25;5074628;28;19918;-60
2023/10/12 13:21:59;;;;;;;;;;;;;;;20.09;21.92;99408.88;5074404;28;19920;-60
2023/10/12 13:24:26;;;;;;;;;;;;;;;20.27;22.08;99419.13;5084709;28;19912;-60
2023/10/12 13:26:52;;;;;;;;;;;;;;;20.35;21.77;99425.88;5094677;28;19912;-60
2023/10/12 13:29:17;;;;;;;;;;;;;;;20.43;21.76;99438.94;5094755;28;19998;-59
2023/10/12 13:31:43;;;;;;;;;;;;;;;20.17;21.31;99465.56;5110471;28;19923;-60
2023/10/12 13:34:10;;;;;;;;;;;;;;;20.19;22.06;99457.91;5079530;28;19916;-59
2023/10/12 13:36:37;;;;;;;;;;;;;;;20.10;21.44;99451.41;5073942;28;19912;-60
2023/10/12 13:39:09;;;;;;;;;;;;;;;19.87;21.51;99436.53;5074529;28;20427;-59
2023/10/12 13:41:35;;;;;;;;;;;;;;;19.43;21.77;99421.75;5074446;28;19978;-60
2023/10/12 13:44:05;;;;;;;;;;;;;;;19.75;21.52;99447.78;5075325;28;20366;-60
2023/10/12 13:46:30;;;;;;;;;;;;;;;19.81;22.48;99449.38;5078144;28;20461;-60
2023/10/12 13:48:56;;;;;;;;;;;;;;;19.70;22.21;99453.22;5078070;28;19963;-60
2023/10/12 13:51:30;;;;;;;;;;;;;;;19.89;22.53;99456.97;5078192;28;19958;-60
2023/10/12 13:53:55;;;;;;;;;;;;;;;19.82;22.07;99445.56;5077580;28;19944;-60
2023/10/12 13:56:28;;;;;;;;;;;;;;;19.85;22.53;99434.09;5078265;28;19951;-60
2023/10/12 13:58:57;;;;;;;;;;;;;;;19.87;22.19;99439.25;5078182;28;19916;-60
2023/10/12 14:01:23;;;;;;;;;;;;;;;19.80;22.33;99430.56;5092321;28;20388;-60
2023/10/12 14:03:55;;;;;;;;;;;;;;;19.56;21.99;99449.44;5077814;28;19920;-60
2023/10/12 14:06:21;;;;;;;;;;;;;;;19.63;22.84;99448.09;5078454;28;19960;-60
2023/10/12 14:08:46;;;;;;;;;;;;;;;19.78;22.57;99462.75;5078090;28;19962;-60
2023/10/12 14:11:18;;;;;;;;;;;;;;;19.71;22.31;99471.19;5077854;28;19921;-61
2023/10/12 14:13:47;;;;;;;;;;;;;;;19.81;22.34;99479.34;5078048;28;20012;-60
2023/10/12 14:16:13;;;;;;;;;;;;;;;19.87;22.19;99491.88;5081445;28;19948;-60
2023/10/12 14:18:39;;;;;;;;;;;;;;;20.00;22.43;99490.44;5098056;28;19916;-60
2023/10/12 14:21:09;;;;;;;;;;;;;;;20.05;21.97;99495.06;5088307;28;19919;-60
2023/10/12 14:23:45;;;;;;;;;;;;;;;19.67;21.87;99508.28;5080616;28;19920;-60
2023/10/12 14:26:18;;;;;;;;;;;;;;;19.51;21.79;99512.94;5098302;28;20284;-60
2023/10/12 14:28:45;;;;;;;;;;;;;;;19.53;21.99;99524.34;5096339;28;19913;-59
2023/10/12 14:31:11;;;;;;;;;;;;;;;19.65;22.18;99522.16;5077457;28;20388;-60
2023/10/12 14:33:36;;;;;;;;;;;;;;;19.77;21.98;99530.03;5077740;28;19912;-59
2023/10/12 14:36:05;;;;;;;;;;;;;;;19.77;22.16;99540.13;5077403;28;19916;-59
2023/10/12 14:38:32;;;;;;;;;;;;;;;19.75;21.91;99532.22;5077264;28;19931;-59
2023/10/12 14:40:57;;;;;;;;;;;;;;;19.45;21.92;99546.72;5077195;28;19912;-59
2023/10/12 14:43:23;;;;;;;;;;;;;;;19.38;22.26;99548.91;5076892;28;20003;-59
2023/10/12 14:45:58;;;;;;;;;;;;;;;19.41;22.24;99551.06;5077158;28;19927;-60
2023/10/12 14:48:24;;;;;;;;;;;;;;;19.24;22.63;99554.06;5077442;28;19919;-59
2023/10/12 14:51:00;;;;;;;;;;;;;;;19.08;22.89;99558.72;5077332;28;19912;-59
2023/10/12 14:53:28;;;;;;;;;;;;;;;18.98;22.51;99562.28;5058615;28;19913;-60
2023/10/12 14:55:53;;;;;;;;;;;;;;;18.87;22.93;99556.00;5085724;28;20007;-60
2023/10/12 14:58:19;;;;;;;;;;;;;;;18.61;22.99;99555.13;5097531;28;19943;-60
2023/10/12 15:00:44;;;;;;;;;;;;;;;18.67;23.08;99556.75;5086472;28;19913;-59
2023/10/12 15:03:10;;;;;;;;;;;;;;;18.67;23.06;99561.38;5076739;28;19913;-60
2023/10/12 15:05:39;;;;;;;;;;;;;;;18.41;22.80;99565.97;5077219;28;20254;-60
2023/10/12 15:08:07;;;;;;;;;;;;;;;18.44;22.90;99568.94;5076830;28;19912;-60
2023/10/12 15:10:43;;;;;;;;;;;;;;;18.35;22.94;99574.09;5076551;28;19917;-60
2023/10/12 15:13:11;;;;;;;;;;;;;;;18.26;22.95;99575.69;5076786;28;19960;-59
2023/10/12 15:15:37;;;;;;;;;;;;;;;18.16;23.02;99583.78;5076796;28;19920;-60
2023/10/12 15:18:03;;;;;;;;;;;;;;;17.99;23.01;99584.78;5095712;28;19912;-60
2023/10/12 15:20:31;;;;;;;;;;;;;;;18.11;23.41;99591.94;5092171;28;19927;-60
2023/10/12 15:22:56;;;;;;;;;;;;;;;18.06;23.29;99592.72;5076954;28;20253;-59
2023/10/12 15:25:21;;;;;;;;;;;;;;;18.09;23.08;99602.22;5089556;28;19913;-61
2023/10/12 15:27:49;;;;;;;;;;;;;;;18.24;23.19;99598.75;5076388;28;19920;-60
2023/10/12 15:30:15;;;;;;;;;;;;;;;18.55;22.69;99596.97;5076509;28;19916;-61
2023/10/12 15:32:41;;;;;;;;;;;;;;;18.90;22.84;99598.16;5076090;28;19925;-60
2023/10/12 15:35:12;;;;;;;;;;;;;;;19.51;22.30;99603.59;5076594;28;19979;-60